PWSweather.com
Personal Weather Stations
Station Observations
MAHIABEACH
Mahia Beach, Mahia Peninsula Hawkes Bay -NZ 4108

Mahia BeachMahia Peninsula Hawkes Bay -NZ 4108

Lat: -39.087594, Lon: 177.87261128

Elevation: 20

Station Type: ScientificSales WS1093

http://wairoa.net/mahia/index.htm

Latest ConditionsUpdated 5:45:05 PM GMT+12:12 Wednesday, Oct 1, 2014
Currently Today's Max Today's Min Today's Average
Temperature 55.2°F12.9°C 59.2°F15.1°C 54.7°F12.6°C 56.4°F13.6°C
Dew Point 52.0°F11.1°C 53.0°F11.7°C 50.1°F10.1°C 51.6°F10.9°C
Winds 5.1 mph SSW8.2 kmh SSW 6.7 mph S10.8 kmh S - 5.0 mph 8.0 kmh
Wind Gusts 10.7 mph17.2 kmh 20.6 mph33.2 kmh - -
Humidity 89% 94% 75% 84%
Pressure 29.75 in1007.5 mb 29.82 in1009.8 mb 29.75 in1007.5 mb -
Precipitation - 0.18 in4.6 mm - -
Hour Temp Dew Point Humidity Winds Wind Gusts Pressure Precip Precip Rate Daily Precip Total
05:45 PM 55.2°F12.9°C 52.0°F11.1°C 89% 5.1 mph SSW8.2 kmh SSW 10.7 mph17.2 kmh 29.75 in1007.5 mb 0.00 in0.0 mm 0.00 in/hr0.0 mm/hr 0.18 in4.6 mm
05:30 PM 55.6°F13.1°C 51.8°F11.0°C 87% 4.5 mph S7.2 kmh S 11.4 mph18.3 kmh 29.76 in1007.8 mb 0.00 in0.0 mm 0.00 in/hr0.0 mm/hr 0.18 in4.6 mm
05:15 PM 55.8°F13.2°C 51.6°F10.9°C 86% 4.3 mph SSW6.9 kmh SSW 10.7 mph17.2 kmh 29.76 in1007.8 mb 0.00 in0.0 mm 0.00 in/hr0.0 mm/hr 0.18 in4.6 mm
05:00 PM 55.8°F13.2°C 51.3°F10.7°C 85% 4.1 mph S6.6 kmh S 12.1 mph19.5 kmh 29.76 in1007.8 mb 0.00 in0.0 mm 0.00 in/hr0.0 mm/hr 0.18 in4.6 mm
04:45 PM 55.9°F13.3°C 51.2°F10.7°C 84% 4.7 mph SSW7.6 kmh SSW 10.7 mph17.2 kmh 29.77 in1008.1 mb 0.00 in0.0 mm 0.00 in/hr0.0 mm/hr 0.18 in4.6 mm
04:30 PM 55.9°F13.3°C 51.2°F10.7°C 84% 5.4 mph S8.7 kmh S 12.1 mph19.5 kmh 29.76 in1007.8 mb 0.01 in0.3 mm 0.00 in/hr0.0 mm/hr 0.18 in4.6 mm
04:15 PM 55.6°F13.1°C 51.5°F10.8°C 86% 5.6 mph S9.0 kmh S 12.1 mph19.5 kmh 29.77 in1008.1 mb 0.01 in0.3 mm 0.00 in/hr0.0 mm/hr 0.18 in4.6 mm
04:00 PM 54.7°F12.6°C 53.0°F11.7°C 94% 2.6 mph S4.2 kmh S 6.0 mph9.7 kmh 29.77 in1008.1 mb 0.01 in0.3 mm 0.00 in/hr0.0 mm/hr 0.18 in4.6 mm
03:45 PM 55.2°F12.9°C 52.0°F11.1°C 89% 2.5 mph S4.0 kmh S 6.0 mph9.7 kmh 29.78 in1008.5 mb 0.01 in0.3 mm 0.04 in/hr1.0 mm/hr 0.18 in4.6 mm
03:30 PM 55.2°F12.9°C 52.0°F11.1°C 89% 3.5 mph S5.6 kmh S 9.8 mph15.8 kmh 29.78 in1008.5 mb 0.00 in0.0 mm 0.00 in/hr0.0 mm/hr 0.17 in4.3 mm
03:00 PM 56.1°F13.4°C 51.7°F10.9°C 85% 4.2 mph S6.8 kmh S 9.8 mph15.8 kmh 29.78 in1008.5 mb 0.02 in0.5 mm 0.00 in/hr0.0 mm/hr 0.17 in4.3 mm
02:45 PM 55.9°F13.3°C 51.5°F10.8°C 85% 5.9 mph S9.5 kmh S 16.8 mph27.0 kmh 29.78 in1008.5 mb 0.02 in0.5 mm 0.00 in/hr0.0 mm/hr 0.17 in4.3 mm
02:30 PM 55.9°F13.3°C 51.8°F11.0°C 86% 3.6 mph S5.8 kmh S 11.4 mph18.3 kmh 29.78 in1008.5 mb 0.04 in1.0 mm 0.00 in/hr0.0 mm/hr 0.17 in4.3 mm
02:15 PM 54.7°F12.6°C 52.1°F11.2°C 91% 5.2 mph SSE8.4 kmh SSE 17.4 mph28.0 kmh 29.79 in1008.8 mb 0.04 in1.0 mm 0.12 in/hr3.0 mm/hr 0.17 in4.3 mm
02:00 PM 55.2°F12.9°C 52.6°F11.4°C 91% 5.1 mph S8.2 kmh S 15.9 mph25.6 kmh 29.79 in1008.8 mb 0.01 in0.3 mm 0.00 in/hr0.0 mm/hr 0.14 in3.6 mm
01:45 PM 56.3°F13.5°C 51.9°F11.1°C 85% 5.5 mph SSE8.9 kmh SSE 18.3 mph29.5 kmh 29.79 in1008.8 mb 0.01 in0.3 mm 0.04 in/hr1.0 mm/hr 0.14 in3.6 mm
01:30 PM 57.7°F14.3°C 51.3°F10.7°C 79% 6.3 mph S10.1 kmh S 14.5 mph23.3 kmh 29.79 in1008.8 mb 0.00 in0.0 mm 0.00 in/hr0.0 mm/hr 0.13 in3.3 mm
01:15 PM 57.4°F14.1°C 50.6°F10.3°C 78% 5.9 mph S9.5 kmh S 17.4 mph28.0 kmh 29.80 in1009.1 mb 0.00 in0.0 mm 0.00 in/hr0.0 mm/hr 0.13 in3.3 mm
01:00 PM 58.6°F14.8°C 51.8°F11.0°C 78% 6.6 mph SSW10.6 kmh SSW 16.8 mph27.0 kmh 29.80 in1009.1 mb 0.00 in0.0 mm 0.00 in/hr0.0 mm/hr 0.13 in3.3 mm
12:45 PM 57.9°F14.4°C 50.1°F10.1°C 75% 6.7 mph S10.8 kmh S 18.3 mph29.5 kmh 29.80 in1009.1 mb 0.00 in0.0 mm 0.00 in/hr0.0 mm/hr 0.13 in3.3 mm
12:30 PM 58.8°F14.9°C 50.9°F10.5°C 75% 6.4 mph SSE10.3 kmh SSE 20.6 mph33.2 kmh 29.81 in1009.5 mb 0.00 in0.0 mm 0.00 in/hr0.0 mm/hr 0.13 in3.3 mm
12:15 PM 58.5°F14.7°C 51.3°F10.7°C 77% 6.3 mph S10.1 kmh S 15.9 mph25.6 kmh 29.81 in1009.5 mb 0.00 in0.0 mm 0.00 in/hr0.0 mm/hr 0.13 in3.3 mm
12:00 PM 59.2°F15.1°C 51.6°F10.9°C 76% 5.2 mph SSW8.4 kmh SSW 12.1 mph19.5 kmh 29.82 in1009.8 mb 0.00 in0.0 mm 0.00 in/hr0.0 mm/hr 0.13 in3.3 mm